createdAt,value
2023-04-15T00:01:37.142Z,4.19
2023-04-15T00:04:04.714Z,4.20
2023-04-15T00:06:31.383Z,4.19
2023-04-15T00:08:58.087Z,4.24
2023-04-15T00:11:24.661Z,4.13
2023-04-15T00:13:51.429Z,4.11
2023-04-15T00:16:17.955Z,4.07
2023-04-15T00:18:44.442Z,3.99
2023-04-15T00:21:10.904Z,4.01
2023-04-15T00:23:37.277Z,3.86
2023-04-15T00:26:06.151Z,3.83
2023-04-15T00:28:35.385Z,3.77
2023-04-15T00:31:02.366Z,3.75
2023-04-15T00:33:28.874Z,3.80
2023-04-15T00:35:55.330Z,3.82
2023-04-15T00:38:21.885Z,3.75
2023-04-15T00:40:48.334Z,3.70
2023-04-15T00:43:17.651Z,3.63
2023-04-15T00:45:44.081Z,3.57
2023-04-15T00:48:13.630Z,3.55
2023-04-15T00:50:40.073Z,3.55
2023-04-15T00:53:07.008Z,3.45
2023-04-15T00:55:33.801Z,3.44
2023-04-15T00:58:00.272Z,3.42
2023-04-15T01:00:27.238Z,3.35
2023-04-15T01:02:56.072Z,3.36
2023-04-15T01:05:27.724Z,3.35
2023-04-15T01:07:57.343Z,3.34
2023-04-15T01:10:23.864Z,3.34
2023-04-15T01:12:50.347Z,3.36
2023-04-15T01:15:16.956Z,3.29
2023-04-15T01:17:43.528Z,3.32
2023-04-15T01:20:11.597Z,3.26
2023-04-15T01:22:39.311Z,3.20
2023-04-15T01:25:14.132Z,3.23
2023-04-15T01:27:42.266Z,3.22
2023-04-15T01:30:09.523Z,3.24
2023-04-15T01:32:36.867Z,3.28
2023-04-15T01:35:05.950Z,3.27
2023-04-15T01:37:35.869Z,3.22
2023-04-15T01:40:03.405Z,3.12
2023-04-15T01:42:32.616Z,3.08
2023-04-15T01:44:59.101Z,3.09
2023-04-15T01:47:25.867Z,3.10
2023-04-15T01:49:52.245Z,3.09
2023-04-15T01:52:18.734Z,3.07
2023-04-15T01:54:45.221Z,3.01
2023-04-15T01:57:11.575Z,3.01
2023-04-15T01:59:38.258Z,2.97
2023-04-15T02:02:05.458Z,3.02
2023-04-15T02:04:32.624Z,2.98
2023-04-15T02:06:59.129Z,2.96
2023-04-15T02:09:25.701Z,2.92
2023-04-15T02:11:53.889Z,2.97
2023-04-15T02:14:20.304Z,2.95
2023-04-15T02:16:46.824Z,2.93
2023-04-15T02:19:13.928Z,2.92
2023-04-15T02:21:40.315Z,2.93
2023-04-15T02:24:07.091Z,2.94
2023-04-15T02:26:33.614Z,2.91
2023-04-15T02:29:00.866Z,2.98
2023-04-15T02:31:27.680Z,2.93
2023-04-15T02:33:54.218Z,3.04
2023-04-15T02:36:23.900Z,3.17
2023-04-15T02:38:50.715Z,2.98
2023-04-15T02:41:17.553Z,2.93
2023-04-15T02:43:44.016Z,2.86
2023-04-15T02:46:14.637Z,2.85
2023-04-15T02:48:41.700Z,2.80
2023-04-15T02:51:12.606Z,2.75
2023-04-15T02:53:39.129Z,2.72
2023-04-15T02:56:06.617Z,2.72
2023-04-15T02:58:34.743Z,2.68
2023-04-15T03:01:01.685Z,2.64
2023-04-15T03:03:28.737Z,2.60
2023-04-15T03:05:55.202Z,2.58
2023-04-15T03:08:24.228Z,2.56
2023-04-15T03:10:52.570Z,2.57
2023-04-15T03:13:19.470Z,2.56
2023-04-15T03:15:51.385Z,2.55
2023-04-15T03:18:17.909Z,2.57
2023-04-15T03:20:44.372Z,2.54
2023-04-15T03:23:11.121Z,2.50
2023-04-15T03:25:37.676Z,2.57
2023-04-15T03:28:04.210Z,2.64
2023-04-15T03:30:30.796Z,2.97
2023-04-15T03:32:57.285Z,2.76
2023-04-15T03:35:25.997Z,2.73
2023-04-15T03:37:52.572Z,2.65
2023-04-15T03:40:23.929Z,2.65
2023-04-15T03:42:52.762Z,2.55
2023-04-15T03:45:21.381Z,2.58
2023-04-15T03:47:49.764Z,2.54
2023-04-15T03:50:16.380Z,2.50
2023-04-15T03:52:42.807Z,2.50
2023-04-15T03:55:09.815Z,2.49
2023-04-15T03:57:38.962Z,2.44
2023-04-15T04:00:06.289Z,2.41
2023-04-15T04:02:32.879Z,2.38
2023-04-15T04:04:59.395Z,2.34
2023-04-15T04:07:25.909Z,2.29
2023-04-15T04:09:52.424Z,2.32
2023-04-15T04:12:18.833Z,2.28
2023-04-15T04:14:45.689Z,2.28
2023-04-15T04:17:15.156Z,2.27
2023-04-15T04:19:43.737Z,2.21
2023-04-15T04:22:10.537Z,2.21
2023-04-15T04:24:37.023Z,2.18
2023-04-15T04:27:03.634Z,2.25
2023-04-15T04:29:30.100Z,2.18
2023-04-15T04:32:01.510Z,2.19
2023-04-15T04:34:28.028Z,2.20
2023-04-15T04:36:54.471Z,2.20
2023-04-15T04:39:20.831Z,2.19
2023-04-15T04:41:47.290Z,2.17
2023-04-15T04:44:13.677Z,2.10
2023-04-15T04:46:40.069Z,2.18
2023-04-15T04:49:06.935Z,2.21
2023-04-15T04:51:33.451Z,2.20
2023-04-15T04:54:03.663Z,2.19
2023-04-15T04:56:30.357Z,2.21
2023-04-15T04:58:57.202Z,2.23
2023-04-15T05:01:23.719Z,2.25
2023-04-15T05:03:50.431Z,2.28
2023-04-15T05:06:16.865Z,2.31
2023-04-15T05:08:43.226Z,2.32
2023-04-15T05:11:09.680Z,2.32
2023-04-15T05:13:38.636Z,2.33
2023-04-15T05:16:06.042Z,2.43
2023-04-15T05:18:32.524Z,2.43
2023-04-15T05:21:02.608Z,2.46
2023-04-15T05:23:29.234Z,2.52
2023-04-15T05:25:55.739Z,2.66
2023-04-15T05:28:22.152Z,2.78
2023-04-15T05:30:48.814Z,2.87
2023-04-15T05:33:15.804Z,2.91
2023-04-15T05:35:42.200Z,3.06
2023-04-15T05:38:10.957Z,3.16
2023-04-15T05:40:37.570Z,3.15
2023-04-15T05:43:03.975Z,3.28
2023-04-15T05:45:30.442Z,3.59
2023-04-15T05:47:56.911Z,3.73
2023-04-15T05:50:23.437Z,3.88
2023-04-15T05:52:49.926Z,4.11
2023-04-15T05:55:16.517Z,4.34
2023-04-15T05:57:42.913Z,4.45
2023-04-15T06:00:10.132Z,4.66
2023-04-15T06:02:37.028Z,4.69
2023-04-15T06:05:04.055Z,5.06
2023-04-15T06:07:30.882Z,5.09
2023-04-15T06:09:57.329Z,5.19
2023-04-15T06:12:23.697Z,5.55
2023-04-15T06:14:50.120Z,5.62
2023-04-15T06:17:18.400Z,5.72
2023-04-15T06:19:47.004Z,6.00
2023-04-15T06:22:13.541Z,6.62
2023-04-15T06:24:40.109Z,7.02
2023-04-15T06:27:07.117Z,6.70
2023-04-15T06:29:33.662Z,7.33
2023-04-15T06:32:00.575Z,7.40
2023-04-15T06:34:27.461Z,7.85
2023-04-15T06:36:54.795Z,7.88
2023-04-15T06:39:21.377Z,7.59
2023-04-15T06:41:48.184Z,8.19
2023-04-15T06:44:14.709Z,8.30
2023-04-15T06:46:41.382Z,8.17
2023-04-15T06:49:08.170Z,8.84
2023-04-15T06:51:36.073Z,9.30
2023-04-15T06:54:05.839Z,9.65
2023-04-15T06:56:33.307Z,10.00
2023-04-15T06:58:59.871Z,9.08
2023-04-15T07:01:26.660Z,9.06
2023-04-15T07:03:53.179Z,9.03
2023-04-15T07:06:19.863Z,9.43
2023-04-15T07:08:46.272Z,9.73
2023-04-15T07:11:15.216Z,9.83
2023-04-15T07:13:43.940Z,9.56
2023-04-15T07:16:10.370Z,9.71
2023-04-15T07:18:39.084Z,9.90
2023-04-15T07:21:05.726Z,10.17
2023-04-15T07:23:32.176Z,10.18
2023-04-15T07:26:01.546Z,9.89
2023-04-15T07:28:30.671Z,10.83
2023-04-15T07:30:59.475Z,10.01
2023-04-15T07:33:26.268Z,10.52
2023-04-15T07:35:52.627Z,9.85
2023-04-15T07:38:19.075Z,10.15
2023-04-15T07:40:46.790Z,10.40
2023-04-15T07:43:13.716Z,10.23
2023-04-15T07:45:40.271Z,10.45
2023-04-15T07:48:06.956Z,10.33
2023-04-15T07:50:33.481Z,10.48
2023-04-15T07:53:02.248Z,10.09
2023-04-15T07:55:30.552Z,10.49
2023-04-15T07:57:57.323Z,10.92
2023-04-15T08:00:28.746Z,10.74
2023-04-15T08:02:57.552Z,10.82
2023-04-15T08:05:24.040Z,10.90
2023-04-15T08:07:50.539Z,10.85
2023-04-15T08:10:17.289Z,10.89
2023-04-15T08:12:43.755Z,11.27
2023-04-15T08:15:10.558Z,11.16
2023-04-15T08:17:37.186Z,11.56
2023-04-15T08:20:04.655Z,11.60
2023-04-15T08:22:34.451Z,12.15
2023-04-15T08:25:00.933Z,12.18
2023-04-15T08:27:29.657Z,12.16
2023-04-15T08:30:03.398Z,12.19
2023-04-15T08:32:31.511Z,11.91
2023-04-15T08:35:00.669Z,12.33
2023-04-15T08:37:27.151Z,12.32
2023-04-15T08:39:58.524Z,12.30
2023-04-15T08:42:31.985Z,12.95
2023-04-15T08:45:00.143Z,13.19
2023-04-15T08:47:30.672Z,12.79
2023-04-15T08:49:58.119Z,12.80
2023-04-15T08:52:26.456Z,13.18
2023-04-15T08:54:56.727Z,12.88
2023-04-15T08:57:27.470Z,12.85
2023-04-15T08:59:57.037Z,12.79
2023-04-15T09:02:27.310Z,13.63
2023-04-15T09:04:54.366Z,13.84
2023-04-15T09:07:23.908Z,14.28
2023-04-15T09:09:51.406Z,14.23
2023-04-15T09:12:17.895Z,13.80
2023-04-15T09:14:49.528Z,13.65
2023-04-15T09:17:19.730Z,14.53
2023-04-15T09:19:46.134Z,14.76
2023-04-15T09:22:13.335Z,14.48
2023-04-15T09:24:40.948Z,14.73
2023-04-15T09:27:07.770Z,14.38
2023-04-15T09:29:34.425Z,14.31
2023-04-15T09:32:11.798Z,14.08
2023-04-15T09:34:38.427Z,14.29
2023-04-15T09:37:04.820Z,14.47
2023-04-15T09:39:49.918Z,13.97
2023-04-15T09:42:17.678Z,14.07
2023-04-15T09:44:44.420Z,14.25
2023-04-15T09:47:27.684Z,14.49
2023-04-15T09:49:58.587Z,14.64
2023-04-15T09:52:25.189Z,14.08
2023-04-15T09:54:56.521Z,14.07
2023-04-15T09:57:23.839Z,14.29
2023-04-15T09:59:52.885Z,14.50
2023-04-15T10:02:23.170Z,14.26
2023-04-15T10:04:53.703Z,14.36
2023-04-15T10:07:23.806Z,14.35
2023-04-15T10:09:50.373Z,14.65
2023-04-15T10:12:18.137Z,14.25
2023-04-15T10:14:49.354Z,14.60
2023-04-15T10:17:18.685Z,15.09
2023-04-15T10:19:46.659Z,15.89
2023-04-15T10:22:14.464Z,15.35
2023-04-15T10:24:45.368Z,15.26
2023-04-15T10:27:12.183Z,15.35
2023-04-15T10:29:39.015Z,15.29
2023-04-15T10:32:05.637Z,15.16
2023-04-15T10:34:32.594Z,15.23
2023-04-15T10:37:03.712Z,15.09
2023-04-15T10:39:33.195Z,14.98
2023-04-15T10:42:11.593Z,14.96
2023-04-15T10:44:39.330Z,15.22
2023-04-15T10:47:20.408Z,15.22
2023-04-15T10:49:58.130Z,15.61
2023-04-15T10:52:27.707Z,15.74
2023-04-15T10:55:16.307Z,15.01
2023-04-15T10:57:43.251Z,15.20
2023-04-15T11:00:12.087Z,15.00
2023-04-15T11:02:52.399Z,15.56
2023-04-15T11:05:21.395Z,15.23
2023-04-15T11:07:56.936Z,15.42
2023-04-15T11:10:26.255Z,15.61
2023-04-15T11:13:04.060Z,15.59
2023-04-15T11:15:37.999Z,15.35
2023-04-15T11:18:10.395Z,15.71
2023-04-15T11:20:38.166Z,15.52
2023-04-15T11:23:12.984Z,15.48
2023-04-15T11:25:41.748Z,15.73
2023-04-15T11:28:11.946Z,15.65
2023-04-15T11:30:39.899Z,15.43
2023-04-15T11:33:12.201Z,14.99
2023-04-15T11:35:41.899Z,14.86
2023-04-15T11:38:10.927Z,14.56
2023-04-15T11:40:40.987Z,14.56
2023-04-15T11:43:22.169Z,14.36
2023-04-15T11:45:55.871Z,14.61
2023-04-15T11:48:24.980Z,14.44
2023-04-15T11:51:05.288Z,14.28
2023-04-15T11:53:41.565Z,14.38
2023-04-15T11:56:10.126Z,14.40
2023-04-15T11:58:40.613Z,14.25
2023-04-15T12:01:07.466Z,14.33
2023-04-15T12:03:43.331Z,14.06
2023-04-15T12:06:23.509Z,14.44
2023-04-15T12:08:55.987Z,14.48
2023-04-15T12:11:31.342Z,14.59
2023-04-15T12:14:24.415Z,14.95
2023-04-15T12:16:58.160Z,14.95
2023-04-15T12:19:35.629Z,15.02
2023-04-15T12:22:11.375Z,14.70
2023-04-15T12:24:39.545Z,14.58
2023-04-15T12:27:08.767Z,14.30
2023-04-15T12:29:38.620Z,14.19
2023-04-15T12:32:16.576Z,14.00
2023-04-15T12:34:54.452Z,14.12
2023-04-15T12:37:21.160Z,14.07
2023-04-15T12:39:49.176Z,13.91
2023-04-15T12:42:17.322Z,13.96
2023-04-15T12:44:44.127Z,13.99
2023-04-15T12:47:11.740Z,14.02
2023-04-15T12:49:39.433Z,14.00
2023-04-15T12:52:06.169Z,13.95
2023-04-15T12:54:32.910Z,13.73
2023-04-15T12:56:59.940Z,13.62
2023-04-15T12:59:26.441Z,13.72
2023-04-15T13:01:53.965Z,13.74
2023-04-15T13:04:21.877Z,13.84
2023-04-15T13:06:48.735Z,13.84
2023-04-15T13:09:15.766Z,13.86
2023-04-15T13:11:42.359Z,14.14
2023-04-15T13:14:11.460Z,14.22
2023-04-15T13:16:40.502Z,14.25
2023-04-15T13:19:09.371Z,14.15
2023-04-15T13:21:36.366Z,14.14
2023-04-15T13:24:04.956Z,14.29
2023-04-15T13:26:32.087Z,14.12
2023-04-15T13:28:58.701Z,14.13
2023-04-15T13:31:25.480Z,14.34
2023-04-15T13:33:51.998Z,14.26
2023-04-15T13:36:18.603Z,14.26
2023-04-15T13:38:45.191Z,14.01
2023-04-15T13:41:11.723Z,14.16
2023-04-15T13:43:38.312Z,13.96
2023-04-15T13:46:05.021Z,14.14
2023-04-15T13:48:31.607Z,14.21
2023-04-15T13:50:58.053Z,14.23
2023-04-15T13:53:33.952Z,14.00
2023-04-15T13:56:10.595Z,13.84
2023-04-15T13:58:38.010Z,13.94
2023-04-15T14:01:06.807Z,14.09
2023-04-15T14:03:35.910Z,14.14
2023-04-15T14:06:02.709Z,14.02
2023-04-15T14:08:32.173Z,14.02
2023-04-15T14:10:58.857Z,13.99
2023-04-15T14:13:25.616Z,13.84
2023-04-15T14:15:52.199Z,13.77
2023-04-15T14:18:18.725Z,14.08
2023-04-15T14:20:45.201Z,13.70
2023-04-15T14:23:11.809Z,13.62
2023-04-15T14:25:39.398Z,13.83
2023-04-15T14:28:08.461Z,13.75
2023-04-15T14:30:35.219Z,13.60
2023-04-15T14:33:02.051Z,13.59
2023-04-15T14:35:30.933Z,13.71
2023-04-15T14:37:57.409Z,13.46
2023-04-15T14:40:26.011Z,13.32
2023-04-15T14:42:52.447Z,13.16
2023-04-15T14:45:19.089Z,13.07
2023-04-15T14:47:45.790Z,12.88
2023-04-15T14:50:12.400Z,12.68
2023-04-15T14:52:39.106Z,12.77
2023-04-15T14:55:07.674Z,12.85
2023-04-15T14:57:34.206Z,12.67
2023-04-15T15:00:00.677Z,12.68
2023-04-15T15:02:38.468Z,12.52
2023-04-15T15:05:09.060Z,12.50
2023-04-15T15:07:38.364Z,12.21
2023-04-15T15:10:06.033Z,12.24
2023-04-15T15:12:32.954Z,12.45
2023-04-15T15:15:00.459Z,11.96
2023-04-15T15:17:30.715Z,11.89
2023-04-15T15:19:57.520Z,11.95
2023-04-15T15:22:24.684Z,11.92
2023-04-15T15:24:51.105Z,11.73
2023-04-15T15:27:17.458Z,11.43
2023-04-15T15:29:43.919Z,11.44
2023-04-15T15:32:10.445Z,11.70
2023-04-15T15:34:37.018Z,11.67
2023-04-15T15:37:03.634Z,11.44
2023-04-15T15:39:30.403Z,11.33
2023-04-15T15:42:01.828Z,11.19
2023-04-15T15:44:28.249Z,11.19
2023-04-15T15:46:54.818Z,11.29
2023-04-15T15:49:21.328Z,11.43
2023-04-15T15:51:50.470Z,11.42
2023-04-15T15:54:17.738Z,11.16
2023-04-15T15:56:44.176Z,11.11
2023-04-15T15:59:10.837Z,11.03
2023-04-15T16:01:37.280Z,11.18
2023-04-15T16:04:04.096Z,10.98
2023-04-15T16:06:34.449Z,10.83
2023-04-15T16:09:02.256Z,10.77
2023-04-15T16:11:29.383Z,10.62
2023-04-15T16:13:56.054Z,10.57
2023-04-15T16:16:22.774Z,10.53
2023-04-15T16:18:49.179Z,10.44
2023-04-15T16:21:19.482Z,10.55
2023-04-15T16:23:46.151Z,10.56
2023-04-15T16:26:14.999Z,10.41
2023-04-15T16:28:41.631Z,10.65
2023-04-15T16:31:08.811Z,10.55
2023-04-15T16:33:37.556Z,10.62
2023-04-15T16:36:04.803Z,10.58
2023-04-15T16:38:31.607Z,10.65
2023-04-15T16:41:00.359Z,10.64
2023-04-15T16:43:27.850Z,10.72
2023-04-15T16:45:54.315Z,10.53
2023-04-15T16:48:21.266Z,10.44
2023-04-15T16:50:48.093Z,10.29
2023-04-15T16:53:18.078Z,10.37
2023-04-15T16:55:44.471Z,10.18
2023-04-15T16:58:11.116Z,10.26
2023-04-15T17:00:37.567Z,10.09
2023-04-15T17:03:05.693Z,10.10
2023-04-15T17:05:35.008Z,10.07
2023-04-15T17:08:01.624Z,9.97
2023-04-15T17:10:28.232Z,10.02
2023-04-15T17:12:58.464Z,9.88
2023-04-15T17:15:25.244Z,9.76
2023-04-15T17:17:51.786Z,9.82
2023-04-15T17:20:18.483Z,9.82
2023-04-15T17:22:45.707Z,9.78
2023-04-15T17:25:13.612Z,9.83
2023-04-15T17:27:42.448Z,9.84
2023-04-15T17:30:09.358Z,9.70
2023-04-15T17:32:35.913Z,9.75
2023-04-15T17:35:10.328Z,9.67
2023-04-15T17:37:37.150Z,9.65
2023-04-15T17:40:08.482Z,9.66
2023-04-15T17:42:35.318Z,9.63
2023-04-15T17:45:01.740Z,9.63
2023-04-15T17:47:28.329Z,9.74
2023-04-15T17:49:54.864Z,9.63
2023-04-15T17:52:21.338Z,9.55
2023-04-15T17:54:47.770Z,9.47
2023-04-15T17:57:14.413Z,9.47
2023-04-15T17:59:44.003Z,9.45
2023-04-15T18:02:12.983Z,9.51
2023-04-15T18:04:40.523Z,9.48
2023-04-15T18:07:07.054Z,9.48
2023-04-15T18:09:33.672Z,9.40
2023-04-15T18:12:02.954Z,9.50
2023-04-15T18:14:34.546Z,9.44
2023-04-15T18:17:05.574Z,9.46
2023-04-15T18:19:32.105Z,9.39
2023-04-15T18:22:01.078Z,9.47
2023-04-15T18:24:32.683Z,9.43
2023-04-15T18:27:01.968Z,9.36
2023-04-15T18:29:28.506Z,9.51
2023-04-15T18:31:55.058Z,9.51
2023-04-15T18:34:21.505Z,9.41
2023-04-15T18:36:48.008Z,9.41
2023-04-15T18:39:14.470Z,9.38
2023-04-15T18:41:40.862Z,9.31
2023-04-15T18:44:07.532Z,9.36
2023-04-15T18:46:34.063Z,9.34
2023-04-15T18:49:04.237Z,9.41
2023-04-15T18:51:30.861Z,9.33
2023-04-15T18:53:57.287Z,9.14
2023-04-15T18:56:23.953Z,9.13
2023-04-15T18:59:22.898Z,9.17
2023-04-15T19:01:37.086Z,9.26
2023-04-15T19:04:06.327Z,9.17
2023-04-15T19:06:32.770Z,9.10
2023-04-15T19:09:02.301Z,9.11
2023-04-15T19:11:28.700Z,9.17
2023-04-15T19:13:55.370Z,9.11
2023-04-15T19:16:21.821Z,9.18
2023-04-15T19:18:48.360Z,9.11
2023-04-15T19:21:15.817Z,9.06
2023-04-15T19:23:45.646Z,9.07
2023-04-15T19:26:12.118Z,9.09
2023-04-15T19:28:38.705Z,9.14
2023-04-15T19:31:05.725Z,9.05
2023-04-15T19:33:34.726Z,9.15
2023-04-15T19:36:03.245Z,9.08
2023-04-15T19:38:30.833Z,9.06
2023-04-15T19:40:58.164Z,9.05
2023-04-15T19:43:25.137Z,9.01
2023-04-15T19:45:56.802Z,9.16
2023-04-15T19:48:25.403Z,9.15
2023-04-15T19:50:51.870Z,9.15
2023-04-15T19:53:18.241Z,9.23
2023-04-15T19:55:44.730Z,9.21
2023-04-15T19:58:16.552Z,9.23
2023-04-15T20:00:48.127Z,9.30
2023-04-15T20:03:17.555Z,9.38
2023-04-15T20:05:46.447Z,9.19
2023-04-15T20:08:12.959Z,9.09
2023-04-15T20:10:39.451Z,9.15
2023-04-15T20:13:06.049Z,9.16
2023-04-15T20:15:32.532Z,9.20
2023-04-15T20:17:58.950Z,9.13
2023-04-15T20:20:26.602Z,9.30
2023-04-15T20:22:53.112Z,9.10
2023-04-15T20:25:19.523Z,9.16
2023-04-15T20:27:45.941Z,9.18
2023-04-15T20:30:12.387Z,9.18
2023-04-15T20:33:18.580Z,9.09
2023-04-15T20:36:25.238Z,9.09
2023-04-15T20:39:30.058Z,9.15
2023-04-15T20:42:39.432Z,9.09
2023-04-15T20:45:43.248Z,9.11
2023-04-15T20:48:47.072Z,9.16
2023-04-15T20:51:51.179Z,9.09
2023-04-15T20:54:55.597Z,9.09
2023-04-15T20:57:59.440Z,9.09
2023-04-15T21:01:03.763Z,9.04
2023-04-15T21:04:08.058Z,9.20
2023-04-15T21:07:12.059Z,9.16
2023-04-15T21:10:16.172Z,9.11
2023-04-15T21:12:42.640Z,9.12
2023-04-15T21:15:09.561Z,9.10
2023-04-15T21:17:38.913Z,9.16
2023-04-15T21:20:08.511Z,9.11
2023-04-15T21:22:34.884Z,9.24
2023-04-15T21:25:01.253Z,9.24
2023-04-15T21:27:27.670Z,9.18
2023-04-15T21:29:54.168Z,9.28
2023-04-15T21:32:20.873Z,9.25
2023-04-15T21:34:47.394Z,9.23
2023-04-15T21:37:13.901Z,9.21
2023-04-15T21:39:40.610Z,9.27
2023-04-15T21:42:10.335Z,9.28
2023-04-15T21:44:36.843Z,9.38
2023-04-15T21:47:03.269Z,9.43
2023-04-15T21:49:30.624Z,9.36
2023-04-15T21:52:00.996Z,9.40
2023-04-15T21:54:28.356Z,9.48
2023-04-15T21:56:54.785Z,9.48
2023-04-15T21:59:21.178Z,9.47
2023-04-15T22:01:47.740Z,9.50
2023-04-15T22:04:19.238Z,9.47
2023-04-15T22:06:46.305Z,9.49
2023-04-15T22:09:14.364Z,9.59
2023-04-15T22:11:41.394Z,9.54
2023-04-15T22:14:08.134Z,9.56
2023-04-15T22:16:34.808Z,9.53
2023-04-15T22:19:02.623Z,9.64
2023-04-15T22:21:29.014Z,9.54
2023-04-15T22:24:32.521Z,9.60
2023-04-15T22:26:44.023Z,9.69
2023-04-15T22:29:10.665Z,9.64
2023-04-15T22:31:37.108Z,9.55
2023-04-15T22:34:03.616Z,9.62
2023-04-15T22:36:31.582Z,9.68
2023-04-15T22:38:58.058Z,9.57
2023-04-15T22:41:24.918Z,9.56
2023-04-15T22:43:51.257Z,9.55
2023-04-15T22:46:17.666Z,9.55
2023-04-15T22:48:44.210Z,9.65
2023-04-15T22:51:10.624Z,9.54
2023-04-15T22:53:37.094Z,9.60
2023-04-15T22:56:03.571Z,9.64
2023-04-15T22:58:31.967Z,9.71
2023-04-15T23:00:59.096Z,9.70
2023-04-15T23:03:25.691Z,9.79
2023-04-15T23:05:54.859Z,9.73
2023-04-15T23:08:21.369Z,9.79
2023-04-15T23:10:48.021Z,9.88
2023-04-15T23:13:14.456Z,9.84
2023-04-15T23:15:40.937Z,9.68
2023-04-15T23:18:07.476Z,9.74
2023-04-15T23:20:34.040Z,9.63
2023-04-15T23:23:00.624Z,9.62
2023-04-15T23:25:27.078Z,9.59
2023-04-15T23:27:53.816Z,9.58
2023-04-15T23:30:22.585Z,9.67
2023-04-15T23:32:49.097Z,9.65
2023-04-15T23:35:18.497Z,9.61
2023-04-15T23:37:44.909Z,9.54
2023-04-15T23:40:11.931Z,9.63
2023-04-15T23:42:38.376Z,9.58
2023-04-15T23:45:05.361Z,9.55
2023-04-15T23:47:32.067Z,9.45
2023-04-15T23:50:00.836Z,9.46
2023-04-15T23:52:29.534Z,9.51
2023-04-15T23:54:56.040Z,9.53
2023-04-15T23:57:22.444Z,9.50
2023-04-15T23:59:48.875Z,9.40
